Airfield :
LOGIN :

Register | Disclaimer

   EN    FR    IT 

 










Legend :    VFR   Marginal VFR   IFR   Intensive IFR   Very Intensive IFR
Visi :
Ceiling :
>= 8 km
>= 3000ft
5 to 8 km
1000 to 3000 ft
1500m to 5 km
500 to 1000 ft
800 to 1500m
200 to 500 ft
< 800m
< 200 ft
Symbols :   Thunderstorms  Fog  Heavy snow  Heavy precipitations  Wind > 20 kt
SIGMETs :     Misc.  Thunderstorms  Icing  Turbulence  Mountain Waves  Volcanic Ashes







- Airport Elevation : 33 ft
- IATA code : MHZ


EGUN - RAF Mildenhall

CURRENT METAR :
  • 171756Z 18008KT 9999 FEW140 24/09 A2984 RMK AO2A SLPNO T02410085 10264 20241 .

EXPIRED METARs :
  • 171658Z 17009KT 9999 SCT180 25/07 A2984 RMK SLP108 WMD DATA ESTMD ALTSG ESTMD RVRNO .
  • 171611Z 17010KT 9999 FEW150 26/07 A2985 RMK SLP111 WND DATA ESTMD ALTSG ESTMD RVRNO $

TAF TAF EGUN
Valid from the 17 at 12:00 until the 18 at 18:00 UTC


171200Z 1712/1818 19010G15KT 9999 SCT050 QNH2985INS
BECMG 1719/1720 24009KT 9999 BKN040 QNH2979INS
BECMG 1805/1806 24010G15KT 8000 -SHRA VCTS BKN010 QNH2978INS
BECMG 1813/1814 28012KT 9999 NSW SCT050 QNH2979INS TX27/1714Z TN16/1807Z
No reported NOTAMs for that airfield.



MET'MAP, your aeronautical weather chart ! - Copyright ORBIFLY December 2007 - Disclaimer

ORBIFLY MET'MAP TEAM :

Programming & Development : Alexandra Zaïnal
Concept & Development : Baudouin d'Aumeries
Co-Development & Prog : Marc-Olivier Méhu
Technical & hardware support : Manuel Goepfert

Contact : metmap@orbifly.com




SOURCES & CREDITS :

   NOAA